This demonstration page uses our WeatherBlox Daily Observations layout. Learn more.

Left ArrowRight Arrow

Hourly Observations for July 1, 2018

Temp ( °F °C ) Dew Point ( °F °C ) Humidity (%) Winds ( mph kmh ) Pressure ( in mb ) Visibility ( mi km ) Precip ( " mm )
12:51 am 00:51 Clear 74 23.3 21 -6.1 14 14 NW 9 15 29.8 1009 10 16.0934 N/A
1:51 am 01:51 Clear 77 25 21 -6.1 12 12 NW 13 20 29.8 1009 10 16.0934 N/A
2:51 am 02:51 Clear 76 24.4 22 -5.6 13 13 NW 12 19 29.81 1010 10 16.0934 N/A
3:51 am 03:51 Clear 74 23.3 24 -4.4 15 15 NNW 8 13 29.82 1010 10 16.0934 N/A
4:51 am 04:51 Clear 64 17.8 29 -1.7 27 27 ESE 5 7 29.86 1011 10 16.0934 N/A
5:51 am 05:51 Sunny 66 18.9 28 -2.2 24 24 E 7 11 29.88 1012 10 16.0934 N/A
6:51 am 06:51 Sunny 75 23.9 26 -3.3 16 16 N N/A 29.89 1012 10 16.0934 N/A
7:51 am 07:51 Sunny 78 25.6 25 -3.9 14 14 W 5 7 29.9 1013 10 16.0934 N/A
8:51 am 08:51 Sunny 84 28.9 26 -3.3 12 12 VRB 6 9 29.89 1012 10 16.0934 N/A
9:51 am 09:51 Sunny 88 31.1 29 -1.7 12 12 WNW 10 17 29.88 1012 10 16.0934 N/A
10:51 am 10:51 Sunny 92 33.3 17 -8.3 6 6 W 9 15 29.87 1012 10 16.0934 N/A
11:51 am 11:51 Sunny 94 34.4 14 -10 5 5 W 10 17 29.86 1011 10 16.0934 N/A
12:51 pm 12:51 Sunny 99 37.2 11 -11.7 4 4 WNW 16 26 29.82 1010 10 16.0934 N/A
1:51 pm 13:51 Sunny 99 37.2 7 -13.9 3 3 W 10 17 29.79 1009 10 16.0934 N/A
2:51 pm 14:51 Sunny 101 38.3 1 -17.2 2 2 NW 15 24 29.76 1008 10 16.0934 N/A
3:51 pm 15:51 Sunny 100 37.8 -3 -19.4 2 2 WNW 17 28 29.75 1007 10 16.0934 N/A
4:51 pm 16:51 Sunny 100 37.8 2 -16.7 2 2 NW 21 33 29.75 1007 10 16.0934 N/A
5:51 pm 17:51 Sunny 98 36.7 6 -14.4 3 3 WNW 20 31 29.75 1008 10 16.0934 N/A
6:51 pm 18:51 Sunny 94 34.4 14 -10 5 5 WNW 17 28 29.75 1008 10 16.0934 N/A
7:51 pm 19:51 Clear 90 32.2 16 -8.9 6 6 NW 14 22 29.77 1008 10 16.0934 N/A
8:51 pm 20:51 Clear 88 31.1 18 -7.8 7 7 NW 14 22 29.78 1009 10 16.0934 N/A
9:51 pm 21:51 Clear 86 30 14 -10 7 7 NW 12 19 29.79 1009 10 16.0934 N/A
10:51 pm 22:51 Clear 83 28.3 14 -10 7 7 NW 12 19 29.8 1009 10 16.0934 N/A
11:51 pm 23:51 Clear 82 27.8 17 -8.3 9 9 NW 10 17 29.8 1009 10 16.0934 N/A

Powered by AerisWeather